Time;durP1;ratioP1;P1;durP2;ratioP2;P2;SDS_P1;SDS_P2;PMS_P1;PMS_P2;Temp;Humidity;BMP_temperature;BMP_pressure;BME280_temperature;BME280_humidity;BME280_pressure;Samples;Min_cycle;Max_cycle;Signal;HPM_P1;HPM_P2
2023/06/28 00:01:56;;;;;;;8.13;2.75;;;;;;;15.77;100.00;101810.09;5011959;28;20112;-77
2023/06/28 00:04:22;;;;;;;5.25;3.00;;;;;;;15.81;100.00;101816.72;5029829;28;20021;-77
2023/06/28 00:06:47;;;;;;;6.50;3.17;;;;;;;15.75;100.00;101809.50;5030176;28;20040;-77
2023/06/28 00:09:12;;;;;;;9.30;2.80;;;;;;;15.75;100.00;101814.88;5029735;28;20431;-77
2023/06/28 00:11:38;;;;;;;4.20;2.95;;;;;;;15.74;100.00;101805.94;5029661;28;20036;-76
2023/06/28 00:14:03;;;;;;;7.65;2.75;;;;;;;15.78;100.00;101799.13;5029440;28;20335;-76
2023/06/28 00:16:28;;;;;;;6.05;2.47;;;;;;;15.81;100.00;101805.16;5048700;28;20476;-76
2023/06/28 00:19:00;;;;;;;10.77;3.08;;;;;;;15.81;100.00;101797.06;5048469;28;20400;-77
2023/06/28 00:21:25;;;;;;;6.70;2.97;;;;;;;15.81;100.00;101805.16;5048579;28;20549;-76
2023/06/28 00:23:50;;;;;;;5.57;2.90;;;;;;;15.78;100.00;101809.06;5030628;28;20033;-77
2023/06/28 00:26:16;;;;;;;5.80;3.00;;;;;;;15.80;100.00;101815.09;5048440;28;20472;-77
2023/06/28 00:28:41;;;;;;;5.10;2.45;;;;;;;15.78;100.00;101817.97;5048307;28;20445;-77
2023/06/28 00:31:07;;;;;;;3.88;2.42;;;;;;;15.84;100.00;101819.00;5048286;28;20475;-76
2023/06/28 00:33:33;;;;;;;4.70;2.88;;;;;;;15.83;100.00;101817.34;5030317;28;20395;-76
2023/06/28 00:35:59;;;;;;;8.48;3.22;;;;;;;15.79;100.00;101816.09;5048337;28;20045;-77
2023/06/28 00:38:24;;;;;;;9.07;3.33;;;;;;;15.72;100.00;101810.72;5048155;28;20028;-77
2023/06/28 00:40:50;;;;;;;9.40;4.43;;;;;;;15.72;100.00;101818.81;5048002;28;20063;-76
2023/06/28 00:43:15;;;;;;;7.28;3.00;;;;;;;15.73;100.00;101817.75;5033377;28;20029;-76
2023/06/28 00:45:40;;;;;;;8.25;2.95;;;;;;;15.81;100.00;101818.59;5011485;28;20139;-76
2023/06/28 00:48:06;;;;;;;7.80;3.85;;;;;;;15.77;100.00;101815.47;5029023;28;20064;-77
2023/06/28 00:50:32;;;;;;;7.57;4.22;;;;;;;15.78;100.00;101817.97;5011459;28;20171;-76
2023/06/28 00:52:58;;;;;;;5.30;3.08;;;;;;;15.77;100.00;101813.63;5029176;28;20124;-76
2023/06/28 00:55:23;;;;;;;13.70;3.85;;;;;;;15.75;100.00;101823.75;5028959;28;20096;-77
2023/06/28 00:57:49;;;;;;;9.75;4.35;;;;;;;15.75;100.00;101814.88;5029190;28;20037;-77
2023/06/28 01:00:14;;;;;;;7.25;3.30;;;;;;;15.63;100.00;101795.78;5046290;28;20507;-76
2023/06/28 01:02:44;;;;;;;11.02;3.80;;;;;;;15.74;100.00;101814.03;5048169;28;20411;-76
2023/06/28 01:05:11;;;;;;;6.38;3.20;;;;;;;15.76;100.00;101820.03;5030738;28;20017;-77
2023/06/28 01:07:37;;;;;;;10.55;4.03;;;;;;;15.76;100.00;101811.97;5048059;28;20029;-76
2023/06/28 01:10:04;;;;;;;5.05;3.38;;;;;;;15.83;100.00;101820.03;5048080;28;20035;-77
2023/06/28 01:12:30;;;;;;;8.63;3.65;;;;;;;15.76;100.00;101811.97;5050413;28;20475;-77
2023/06/28 01:14:55;;;;;;;6.75;3.63;;;;;;;15.72;100.00;101805.34;5051735;28;20031;-77
2023/06/28 01:17:21;;;;;;;6.35;3.55;;;;;;;15.80;100.00;101814.22;5051886;28;20391;-77
2023/06/28 01:19:46;;;;;;;11.00;4.15;;;;;;;15.78;100.00;101812.59;5051878;28;20394;-77
2023/06/28 01:22:13;;;;;;;8.38;4.20;;;;;;;15.80;100.00;101814.22;5051749;28;20464;-77
2023/06/28 01:24:40;;;;;;;8.57;3.13;;;;;;;15.80;100.00;101798.94;5033820;28;20413;-77
2023/06/28 01:27:09;;;;;;;8.70;3.45;;;;;;;15.81;100.00;101799.75;5051930;28;20028;-77
2023/06/28 01:29:36;;;;;;;8.55;3.35;;;;;;;15.82;100.00;101796.03;5051928;28;20036;-77
2023/06/28 01:32:03;;;;;;;8.98;4.00;;;;;;;15.80;100.00;101793.56;5051674;28;20112;-77
2023/06/28 01:34:29;;;;;;;9.15;3.60;;;;;;;15.82;100.00;101798.72;5051703;28;20094;-77
2023/06/28 01:36:57;;;;;;;8.02;3.88;;;;;;;15.81;100.00;101797.06;5033226;28;20426;-77
2023/06/28 01:39:24;;;;;;;6.88;3.75;;;;;;;15.75;100.00;101788.78;5051533;28;20086;-77
2023/06/28 01:41:51;;;;;;;5.82;3.25;;;;;;;15.80;100.00;101804.31;5051493;28;20057;-77
2023/06/28 01:44:18;;;;;;;5.97;3.53;;;;;;;15.80;100.00;101798.09;5033403;28;20499;-77
2023/06/28 01:46:44;;;;;;;9.38;3.47;;;;;;;15.77;100.00;101799.31;5033310;28;20017;-77
2023/06/28 01:49:09;;;;;;;7.80;3.95;;;;;;;15.74;100.00;101803.25;5051722;28;20041;-77
2023/06/28 01:51:36;;;;;;;8.10;3.65;;;;;;;15.75;100.00;101799.56;5034329;28;20033;-77
2023/06/28 01:54:03;;;;;;;7.57;3.58;;;;;;;15.73;100.00;101808.88;5014475;28;20048;-77
2023/06/28 01:56:28;;;;;;;6.20;3.28;;;;;;;15.70;100.00;101804.72;5031994;28;20087;-77
2023/06/28 01:58:54;;;;;;;4.65;2.53;;;;;;;15.67;100.00;101806.97;5031855;28;20033;-77
2023/06/28 02:01:19;;;;;;;9.95;2.97;;;;;;;15.65;100.00;101795.59;5031859;28;20029;-77
2023/06/28 02:03:44;;;;;;;9.25;3.38;;;;;;;15.69;100.00;101804.91;5014288;28;20083;-76
2023/06/28 02:06:10;;;;;;;6.07;3.50;;;;;;;15.68;100.00;101800.56;5031813;28;20384;-76
2023/06/28 02:08:35;;;;;;;6.88;2.65;;;;;;;15.67;100.00;101799.75;5045261;28;20096;-77
2023/06/28 02:11:00;;;;;;;3.90;2.78;;;;;;;15.61;100.00;101800.53;5050753;28;20376;-77
2023/06/28 02:13:26;;;;;;;4.97;2.92;;;;;;;15.57;100.00;101794.75;5050796;28;20028;-77
2023/06/28 02:15:51;;;;;;;5.78;3.30;;;;;;;15.60;100.00;101798.91;5050745;28;20076;-77
2023/06/28 02:18:17;;;;;;;5.13;3.17;;;;;;;15.58;100.00;101795.59;5050749;28;20036;-77
2023/06/28 02:20:43;;;;;;;5.40;3.03;;;;;;;15.52;100.00;101797.25;5050733;28;20025;-77
2023/06/28 02:23:09;;;;;;;11.65;3.45;;;;;;;15.52;100.00;101802.63;5050811;28;20037;-77
2023/06/28 02:25:34;;;;;;;5.45;3.75;;;;;;;15.53;100.00;101787.31;5050526;28;20029;-77
2023/06/28 02:28:00;;;;;;;6.85;3.45;;;;;;;15.52;100.00;101788.34;5032643;28;20025;-77
2023/06/28 02:30:25;;;;;;;7.63;3.10;;;;;;;15.55;100.00;101796.81;5050427;28;20140;-76
2023/06/28 02:32:51;;;;;;;6.47;3.88;;;;;;;15.54;100.00;101787.13;5050519;28;20118;-77
2023/06/28 02:35:16;;;;;;;10.27;3.40;;;;;;;15.58;100.00;101784.81;5050022;28;20044;-77
2023/06/28 02:37:41;;;;;;;8.48;3.92;;;;;;;15.55;100.00;101788.75;5050475;28;20556;-77
2023/06/28 02:40:09;;;;;;;7.38;3.58;;;;;;;15.51;100.00;101784.84;5032629;28;20542;-77
2023/06/28 02:42:34;;;;;;;7.80;3.90;;;;;;;15.47;100.00;101777.38;5050268;28;20050;-77
2023/06/28 02:45:00;;;;;;;11.18;3.40;;;;;;;15.51;100.00;101792.06;5050355;28;20491;-78
2023/06/28 02:47:25;;;;;;;8.05;3.75;;;;;;;15.47;100.00;101788.16;5050257;28;20072;-77
2023/06/28 02:49:50;;;;;;;7.53;3.85;;;;;;;15.43;100.00;101781.50;5039913;28;20091;-77
2023/06/28 02:52:16;;;;;;;6.85;3.50;;;;;;;15.45;100.00;101777.59;5031106;28;20022;-77
2023/06/28 02:54:41;;;;;;;8.80;3.95;;;;;;;15.43;100.00;101781.50;5030958;28;20033;-77
2023/06/28 02:57:09;;;;;;;8.93;3.20;;;;;;;15.38;100.00;101790.22;5013191;28;20037;-77
2023/06/28 02:59:34;;;;;;;8.20;3.85;;;;;;;15.32;100.00;101791.00;5030986;28;20041;-77
2023/06/28 03:02:00;;;;;;;10.48;4.30;;;;;;;15.25;100.00;101780.28;5013329;28;20041;-77
2023/06/28 03:04:27;;;;;;;8.93;4.35;;;;;;;15.23;100.00;101786.88;5030644;28;20152;-77
2023/06/28 03:06:52;;;;;;;9.35;3.97;;;;;;;15.19;100.00;101785.63;5030911;28;20029;-76
2023/06/28 03:09:18;;;;;;;8.07;4.22;;;;;;;15.18;100.00;101784.81;4996801;28;20064;-77
2023/06/28 03:11:43;;;;;;;8.35;3.72;;;;;;;15.18;100.00;101789.34;5012929;28;20025;-77
2023/06/28 03:14:09;;;;;;;11.85;5.03;;;;;;;15.15;100.00;101781.72;5030552;28;20025;-77
2023/06/28 03:16:34;;;;;;;7.20;4.13;;;;;;;15.13;100.00;101785.41;5034402;28;20044;-77
2023/06/28 03:19:00;;;;;;;5.82;3.78;;;;;;;15.04;100.00;101773.22;5049397;28;20037;-77
2023/06/28 03:21:25;;;;;;;7.50;3.55;;;;;;;15.03;100.00;101779.59;5049442;28;20381;-78
2023/06/28 03:23:50;;;;;;;10.60;4.80;;;;;;;15.01;100.00;101780.81;5049477;28;20039;-78
2023/06/28 03:26:16;;;;;;;5.85;3.85;;;;;;;14.98;100.00;101782.06;5031350;28;20020;-77
2023/06/28 03:28:41;;;;;;;6.35;3.65;;;;;;;14.96;100.00;101783.28;5037203;28;20092;-77
2023/06/28 03:31:07;;;;;;;8.77;3.10;;;;;;;14.89;100.00;101764.50;5015119;28;20064;-77
2023/06/28 03:33:32;;;;;;;9.13;4.50;;;;;;;14.90;100.00;101774.19;5028330;28;20041;-77
2023/06/28 03:35:57;;;;;;;10.30;4.00;;;;;;;14.88;100.00;101770.88;5048704;28;20048;-77
2023/06/28 03:38:23;;;;;;;13.50;3.83;;;;;;;14.86;100.00;101775.66;5049045;28;20041;-77
2023/06/28 03:40:48;;;;;;;11.40;4.10;;;;;;;14.87;100.00;101764.69;5046407;28;20954;-77
2023/06/28 03:43:13;;;;;;;8.80;3.30;;;;;;;14.87;100.00;101770.06;5030131;28;20029;-77
2023/06/28 03:45:39;;;;;;;10.32;4.35;;;;;;;14.87;100.00;101766.53;5030130;28;20029;-76
2023/06/28 03:48:04;;;;;;;9.80;5.22;;;;;;;14.83;100.00;101766.13;5029817;28;20063;-77
2023/06/28 03:50:30;;;;;;;6.45;4.18;;;;;;;14.85;100.00;101764.03;5012275;28;20095;-77
2023/06/28 03:52:55;;;;;;;6.70;3.60;;;;;;;14.90;100.00;101764.28;5012281;28;20522;-77
2023/06/28 03:55:20;;;;;;;8.52;4.18;;;;;;;14.91;100.00;101762.44;5029750;28;20059;-77
2023/06/28 03:57:46;;;;;;;8.15;4.60;;;;;;;14.94;100.00;101758.53;5012223;28;20090;-77
2023/06/28 04:00:12;;;;;;;11.65;5.18;;;;;;;14.99;100.00;101759.56;5012020;28;20392;-77
2023/06/28 04:02:39;;;;;;;9.98;4.28;;;;;;;15.00;100.00;101768.44;5029689;28;20064;-77
2023/06/28 04:05:05;;;;;;;8.70;4.78;;;;;;;14.98;100.00;101763.25;5011935;28;20021;-77
2023/06/28 04:07:30;;;;;;;12.63;5.53;;;;;;;15.02;100.00;101764.50;5030042;28;20561;-77
2023/06/28 04:09:56;;;;;;;11.27;4.30;;;;;;;15.00;100.00;101760.38;5029744;28;20532;-77
2023/06/28 04:12:21;;;;;;;9.95;4.60;;;;;;;15.03;100.00;101760.78;5029643;28;20464;-76
2023/06/28 04:14:46;;;;;;;12.45;4.35;;;;;;;15.06;100.00;101767.63;5029380;28;20499;-77
2023/06/28 04:17:12;;;;;;;13.10;4.82;;;;;;;15.06;100.00;101762.25;5029315;28;20124;-76
2023/06/28 04:19:38;;;;;;;9.90;4.50;;;;;;;15.08;100.00;101760.19;5011770;28;20477;-77
2023/06/28 04:22:03;;;;;;;9.68;4.97;;;;;;;15.08;100.00;101770.94;5035665;28;20439;-77
2023/06/28 04:24:28;;;;;;;11.48;5.45;;;;;;;15.06;100.00;101757.72;5030434;28;20427;-76
2023/06/28 04:26:54;;;;;;;9.57;5.25;;;;;;;15.13;100.00;101763.09;5036285;28;20112;-76
2023/06/28 04:29:19;;;;;;;10.57;4.47;;;;;;;15.09;100.00;101765.38;5029718;28;20045;-77
2023/06/28 04:31:44;;;;;;;12.52;5.60;;;;;;;15.09;100.00;101768.06;5029182;28;20099;-77
2023/06/28 04:34:10;;;;;;;9.38;4.13;;;;;;;15.10;100.00;101760.81;5017539;28;20037;-76
2023/06/28 04:36:35;;;;;;;7.43;4.43;;;;;;;15.12;100.00;101764.94;5048242;28;20033;-77
2023/06/28 04:39:03;;;;;;;8.25;4.57;;;;;;;15.12;100.00;101773.00;5048238;28;20114;-76
2023/06/28 04:41:29;;;;;;;8.82;4.70;;;;;;;15.11;100.00;101767.84;5048007;28;20061;-76
2023/06/28 04:43:57;;;;;;;9.73;4.72;;;;;;;15.08;100.00;101754.81;5034965;28;20104;-77
2023/06/28 04:46:23;;;;;;;9.45;4.43;;;;;;;15.08;100.00;101746.75;5011955;28;20041;-77
2023/06/28 04:48:49;;;;;;;12.65;5.45;;;;;;;15.11;100.00;101757.09;5033332;28;20535;-77
2023/06/28 04:51:14;;;;;;;10.52;4.85;;;;;;;15.09;100.00;101751.94;5035443;28;20391;-77
2023/06/28 04:53:40;;;;;;;12.32;5.65;;;;;;;15.15;100.00;101758.34;5015450;28;20033;-76
2023/06/28 04:56:05;;;;;;;9.40;4.72;;;;;;;15.10;100.00;101748.19;5033296;28;20053;-77
2023/06/28 04:58:31;;;;;;;10.27;5.38;;;;;;;15.16;100.00;101759.97;5050778;28;20472;-76
2023/06/28 05:00:56;;;;;;;9.85;4.72;;;;;;;15.18;100.00;101757.94;5052101;28;20119;-76
2023/06/28 05:03:26;;;;;;;13.23;5.82;;;;;;;15.20;100.00;101761.25;5052149;28;20365;-76
2023/06/28 05:05:53;;;;;;;11.25;5.85;;;;;;;15.17;100.00;101760.81;5024944;28;20018;-76
2023/06/28 05:08:18;;;;;;;8.98;5.40;;;;;;;15.19;100.00;101767.63;5015098;28;20037;-77
2023/06/28 05:10:44;;;;;;;12.15;5.20;;;;;;;15.24;100.00;101767.84;5032898;28;20033;-76
2023/06/28 05:13:09;;;;;;;13.52;5.10;;;;;;;15.25;100.00;101766.00;5040813;28;20541;-77
2023/06/28 05:15:35;;;;;;;12.60;6.05;;;;;;;15.24;100.00;101762.47;5051716;28;20060;-77
2023/06/28 05:18:00;;;;;;;9.82;5.18;;;;;;;15.24;100.00;101770.53;5052051;28;20090;-76
2023/06/28 05:20:26;;;;;;;10.63;5.38;;;;;;;15.28;100.00;101766.41;5051719;28;20032;-77
2023/06/28 05:23:08;;;;;;;12.25;5.70;;;;;;;15.21;100.00;101765.56;5050581;28;20032;-77
2023/06/28 05:25:34;;;;;;;9.57;5.35;;;;;;;15.31;100.00;101771.38;5036190;28;20054;-77
2023/06/28 05:27:59;;;;;;;12.52;5.57;;;;;;;15.27;100.00;101775.53;5048807;28;20069;-76
2023/06/28 05:30:25;;;;;;;12.23;6.38;;;;;;;15.24;100.00;101767.03;5032824;28;20121;-77
2023/06/28 05:32:50;;;;;;;17.02;5.60;;;;;;;15.25;100.00;101772.22;5032593;28;20033;-77
2023/06/28 05:35:15;;;;;;;13.48;5.35;;;;;;;15.27;100.00;101762.09;5032266;28;20033;-76
2023/06/28 05:37:41;;;;;;;11.20;5.50;;;;;;;15.23;100.00;101758.16;5014561;28;20033;-77
2023/06/28 05:40:08;;;;;;;9.65;5.47;;;;;;;15.25;100.00;101763.31;5023715;28;20053;-77
2023/06/28 05:42:33;;;;;;;12.45;5.30;;;;;;;15.24;100.00;101757.09;5027491;28;20396;-77
2023/06/28 05:44:59;;;;;;;11.68;5.35;;;;;;;15.28;100.00;101755.66;5031456;28;20056;-77
2023/06/28 05:47:24;;;;;;;11.05;6.53;;;;;;;15.26;100.00;101754.22;5029497;28;20051;-77
2023/06/28 05:49:49;;;;;;;17.67;6.05;;;;;;;15.28;100.00;101749.47;5012602;28;20404;-77
2023/06/28 05:52:15;;;;;;;11.55;5.70;;;;;;;15.31;100.00;101749.06;5019377;28;20058;-77
2023/06/28 05:54:40;;;;;;;17.33;6.50;;;;;;;15.34;100.00;101745.94;5020651;28;20030;-76
2023/06/28 05:57:06;;;;;;;13.30;6.45;;;;;;;15.40;100.00;101752.34;5010664;28;20511;-77
2023/06/28 05:59:31;;;;;;;14.07;6.97;;;;;;;15.44;100.00;101753.63;5012297;28;20045;-78
2023/06/28 06:01:56;;;;;;;10.85;6.95;;;;;;;15.46;100.00;101754.25;5012331;28;20022;-77
2023/06/28 06:04:22;;;;;;;11.57;5.93;;;;;;;15.43;100.00;101749.25;5012252;28;20076;-77
2023/06/28 06:06:47;;;;;;;15.57;6.93;;;;;;;15.43;100.00;101751.94;5031025;28;20026;-77
2023/06/28 06:09:13;;;;;;;13.05;6.03;;;;;;;15.49;100.00;101756.50;5031071;28;20036;-77
2023/06/28 06:11:38;;;;;;;18.08;6.22;;;;;;;15.53;100.00;101761.25;5030873;28;20029;-77
2023/06/28 06:14:04;;;;;;;16.45;6.07;;;;;;;15.51;100.00;101757.09;5029507;28;20041;-77
2023/06/28 06:16:29;;;;;;;15.07;6.00;;;;;;;15.51;100.00;101765.16;5030954;28;20493;-76
2023/06/28 06:18:54;;;;;;;13.48;5.75;;;;;;;15.52;100.00;101762.28;5030820;28;20056;-76
2023/06/28 06:21:20;;;;;;;11.45;5.38;;;;;;;15.57;100.00;101762.50;5021985;28;20040;-77
2023/06/28 06:23:45;;;;;;;11.70;5.50;;;;;;;15.58;100.00;101760.63;5024489;28;20064;-76
2023/06/28 06:26:11;;;;;;;11.68;5.68;;;;;;;15.56;100.00;101754.63;5029495;28;20061;-77
2023/06/28 06:28:36;;;;;;;11.25;4.70;;;;;;;15.67;100.00;101766.66;5030595;28;20045;-77
2023/06/28 06:31:01;;;;;;;10.35;5.43;;;;;;;15.74;100.00;101760.22;5023445;28;20439;-77
2023/06/28 06:33:27;;;;;;;11.65;5.95;;;;;;;15.74;100.00;101759.41;5011724;28;20034;-76
2023/06/28 06:35:52;;;;;;;12.68;6.25;;;;;;;15.73;100.00;101750.50;5011527;28;20037;-78
2023/06/28 06:38:17;;;;;;;9.73;5.70;;;;;;;15.74;100.00;101744.09;5010327;28;20034;-78
2023/06/28 06:40:44;;;;;;;10.68;5.20;;;;;;;15.74;100.00;101751.34;5010123;28;20054;-78
2023/06/28 06:43:10;;;;;;;13.73;5.70;;;;;;;15.71;100.00;101749.88;5020057;28;20113;-78
2023/06/28 06:45:35;;;;;;;11.70;6.30;;;;;;;15.73;100.00;101749.69;5011540;28;20105;-76
2023/06/28 06:48:01;;;;;;;12.00;5.80;;;;;;;15.74;100.00;101752.16;5011908;28;20539;-77
2023/06/28 06:50:26;;;;;;;11.82;5.35;;;;;;;15.74;100.00;101754.03;5030241;28;20426;-79
2023/06/28 06:52:52;;;;;;;15.85;6.25;;;;;;;15.74;100.00;101746.78;5016124;28;20653;-78
2023/06/28 06:55:17;;;;;;;8.77;5.15;;;;;;;15.78;100.00;101752.59;5011246;28;20603;-79
2023/06/28 06:57:43;;;;;;;18.27;7.82;;;;;;;15.81;100.00;101756.72;5029628;28;20148;-79
2023/06/28 07:00:09;;;;;;;13.10;6.63;;;;;;;15.87;100.00;101764.75;5029550;28;20034;-78
2023/06/28 07:02:35;;;;;;;13.68;5.75;;;;;;;15.88;100.00;101753.00;5026299;28;20107;-78
2023/06/28 07:05:00;;;;;;;11.77;5.00;;;;;;;15.95;100.00;101761.84;5026284;28;20029;-78
2023/06/28 07:07:25;;;;;;;16.92;6.20;;;;;;;16.00;100.00;101761.22;5011040;28;20060;-78
2023/06/28 07:09:51;;;;;;;13.05;6.00;;;;;;;15.98;100.00;101758.75;5009402;28;20040;-78
2023/06/28 07:12:16;;;;;;;13.70;5.53;;;;;;;16.00;100.00;101764.75;5010849;28;20038;-78
2023/06/28 07:14:41;;;;;;;12.30;5.45;;;;;;;16.02;100.00;101767.22;5009521;28;20542;-79
2023/06/28 07:17:07;;;;;;;12.15;6.18;;;;;;;16.12;100.00;101767.63;5022292;28;20443;-79
2023/06/28 07:19:32;;;;;;;12.68;6.32;;;;;;;16.17;100.00;101759.75;5026096;28;20037;-79
2023/06/28 07:21:57;;;;;;;12.68;5.30;;;;;;;16.16;100.00;101763.47;5011110;28;20022;-79
2023/06/28 07:24:23;;;;;;;13.90;5.95;;;;;;;16.18;100.00;101769.47;5018270;28;20025;-78
2023/06/28 07:26:48;;;;;;;12.80;5.32;;;;;;;16.18;100.00;101760.56;5028197;28;20472;-79
2023/06/28 07:29:13;;;;;;;15.52;6.93;;;;;;;16.16;100.00;101759.94;5016448;28;20266;-75
2023/06/28 07:31:39;;;;;;;15.60;6.13;;;;;;;16.18;100.00;101761.38;5019503;28;20920;-74
2023/06/28 07:34:06;;;;;;;14.75;6.13;;;;;;;16.21;100.00;101765.53;5012079;28;20044;-74
2023/06/28 07:36:32;;;;;;;12.63;5.82;;;;;;;16.26;100.00;101757.63;5022805;28;20064;-78
2023/06/28 07:38:57;;;;;;;11.98;5.55;;;;;;;16.34;100.00;101761.97;5025559;28;20033;-78
2023/06/28 07:41:23;;;;;;;12.05;6.25;;;;;;;16.36;100.00;101766.09;5039115;28;20053;-76
2023/06/28 07:43:49;;;;;;;14.30;6.30;;;;;;;16.36;100.00;101757.19;5041012;28;20542;-78
2023/06/28 07:46:14;;;;;;;17.05;5.93;;;;;;;16.35;100.00;101758.25;5047300;28;20970;-76
2023/06/28 07:48:40;;;;;;;14.13;6.22;;;;;;;16.36;100.00;101766.09;5042908;28;20041;-77
2023/06/28 07:51:05;;;;;;;13.00;6.20;;;;;;;16.37;100.00;101762.38;5037926;28;20124;-78
2023/06/28 07:53:31;;;;;;;10.88;5.32;;;;;;;16.38;100.00;101760.50;5029717;28;20040;-78
2023/06/28 07:55:57;;;;;;;10.82;5.25;;;;;;;16.46;100.00;101764.84;5035660;28;20036;-78
2023/06/28 07:58:22;;;;;;;12.93;6.43;;;;;;;16.43;100.00;101761.53;5013535;28;20029;-78
2023/06/28 08:00:49;;;;;;;11.63;5.28;;;;;;;16.49;100.00;101767.91;5036621;28;20080;-78
2023/06/28 08:03:14;;;;;;;12.57;6.63;;;;;;;16.53;100.00;101771.84;5026584;28;20461;-77
2023/06/28 08:05:39;;;;;;;10.60;6.13;;;;;;;16.55;100.00;101763.53;5017354;28;20042;-77
2023/06/28 08:08:06;;;;;;;11.57;6.63;;;;;;;16.66;100.00;101770.94;5037410;28;20108;-77
2023/06/28 08:10:31;;;;;;;12.48;5.57;;;;;;;16.71;100.00;101773.81;5016367;28;20373;-75
2023/06/28 08:12:56;;;;;;;11.18;5.68;;;;;;;16.70;100.00;101769.47;5040248;28;20036;-77
2023/06/28 08:15:22;;;;;;;9.93;4.72;;;;;;;16.79;100.00;101772.78;5011969;28;20018;-73
2023/06/28 08:17:47;;;;;;;13.75;5.97;;;;;;;16.83;100.00;101766.75;5029726;28;20111;-73
2023/06/28 08:20:13;;;;;;;13.30;6.57;;;;;;;16.95;100.00;101766.91;5042000;28;20036;-78
2023/06/28 08:22:38;;;;;;;13.65;5.88;;;;;;;16.96;100.00;101763.16;5035102;28;20431;-78
2023/06/28 08:25:04;;;;;;;13.15;5.85;;;;;;;16.86;100.00;101749.31;5015858;28;20029;-76
2023/06/28 08:27:30;;;;;;;10.95;4.93;;;;;;;16.93;100.00;101754.69;5034749;28;20030;-74
2023/06/28 08:29:55;;;;;;;13.10;5.72;;;;;;;16.97;100.00;101767.50;5043604;28;20027;-76
2023/06/28 08:32:20;;;;;;;13.45;5.03;;;;;;;16.97;100.00;101766.66;5030739;28;20124;-76
2023/06/28 08:34:46;;;;;;;12.10;5.43;;;;;;;16.91;100.00;101768.38;5040930;28;20029;-74
2023/06/28 08:37:12;;;;;;;12.45;5.60;;;;;;;16.85;100.00;101761.16;5033859;28;20052;-76
2023/06/28 08:39:38;;;;;;;15.23;5.20;;;;;;;16.84;100.00;101768.38;5033787;28;20044;-77
2023/06/28 08:42:04;;;;;;;10.57;5.57;;;;;;;16.83;100.00;101772.13;5013042;28;20162;-76
2023/06/28 08:44:32;;;;;;;11.40;5.32;;;;;;;16.80;100.00;101777.97;5030935;28;20400;-77
2023/06/28 08:46:59;;;;;;;10.93;5.65;;;;;;;16.84;100.00;101783.72;5033848;28;20032;-75
2023/06/28 08:49:27;;;;;;;10.00;4.50;;;;;;;16.80;100.00;101763.66;5038373;28;20031;-77
2023/06/28 08:51:57;;;;;;;15.48;5.07;;;;;;;16.83;100.00;101764.06;5027349;28;20405;-78
2023/06/28 08:54:27;;;;;;;12.63;5.68;;;;;;;16.88;100.00;101768.81;5035500;28;20029;-79
2023/06/28 08:56:56;;;;;;;12.73;5.38;;;;;;;16.90;100.00;101768.56;5041284;28;20029;-76
2023/06/28 08:59:21;;;;;;;11.10;5.85;;;;;;;16.96;100.00;101765.03;5044588;28;20032;-75
2023/06/28 09:01:48;;;;;;;9.52;4.85;;;;;;;16.99;100.00;101762.72;5029047;28;20029;-74
2023/06/28 09:04:13;;;;;;;10.02;4.22;;;;;;;17.06;100.00;101755.41;5031500;28;20437;-74
2023/06/28 09:06:39;;;;;;;11.05;4.97;;;;;;;17.07;100.00;101748.97;5041190;28;20108;-74
2023/06/28 09:09:04;;;;;;;12.25;4.90;;;;;;;17.12;100.00;101753.72;5029256;28;20033;-74
2023/06/28 09:11:30;;;;;;;10.70;5.00;;;;;;;17.29;100.00;101764.78;5029108;28;20136;-74
2023/06/28 09:13:57;;;;;;;9.73;4.68;;;;;;;17.42;100.00;101763.84;5029393;28;20477;-74
2023/06/28 09:16:23;;;;;;;10.90;4.32;;;;;;;17.55;100.00;101760.22;5017540;28;20037;-74
2023/06/28 09:18:49;;;;;;;11.75;5.00;;;;;;;17.61;100.00;101753.97;5045535;28;20062;-75
2023/06/28 09:21:26;;;;;;;12.30;5.05;;;;;;;17.69;100.00;101759.09;5047965;28;20029;-75
2023/06/28 09:23:53;;;;;;;7.97;4.88;;;;;;;17.82;100.00;101761.69;5048077;28;20361;-74
2023/06/28 09:26:18;;;;;;;11.35;4.88;;;;;;;17.97;100.00;101758.59;5048126;28;20028;-72
2023/06/28 09:28:44;;;;;;;10.68;4.63;;;;;;;18.06;100.00;101762.69;5048051;28;20033;-72
2023/06/28 09:31:09;;;;;;;9.13;5.53;;;;;;;18.13;100.00;101770.69;5048114;28;20031;-72
2023/06/28 09:33:35;;;;;;;12.65;5.05;;;;;;;18.09;100.00;101764.09;5050374;28;20087;-72
2023/06/28 09:36:02;;;;;;;12.60;5.43;;;;;;;18.03;100.00;101752.34;5032668;28;20056;-74
2023/06/28 09:38:28;;;;;;;10.45;5.93;;;;;;;18.02;100.00;101758.75;5032907;28;20029;-71
2023/06/28 09:40:58;;;;;;;12.93;5.38;;;;;;;17.94;100.00;101754.47;5032253;28;20058;-72
2023/06/28 09:43:23;;;;;;;9.30;4.43;;;;;;;17.98;100.00;101760.28;5032160;28;20184;-73
2023/06/28 09:45:54;;;;;;;12.00;5.60;;;;;;;17.95;100.00;101764.25;5036727;28;20116;-74
2023/06/28 09:48:24;;;;;;;14.02;4.80;;;;;;;17.95;100.00;101761.56;5036728;28;20021;-74
2023/06/28 09:50:50;;;;;;;9.25;5.05;;;;;;;17.92;99.96;101758.44;5036687;28;20057;-76
2023/06/28 09:53:17;;;;;;;11.18;5.35;;;;;;;17.89;99.50;101762.44;5035475;28;20188;-76
2023/06/28 09:55:44;;;;;;;11.63;5.53;;;;;;;17.91;100.00;101768.44;5035326;28;20089;-78
2023/06/28 09:58:12;;;;;;;14.57;5.30;;;;;;;17.84;99.72;101756.91;5035356;28;20033;-78
2023/06/28 10:00:39;;;;;;;14.93;4.95;;;;;;;17.93;100.00;101760.13;5035858;28;20789;-76
2023/06/28 10:03:06;;;;;;;11.90;5.07;;;;;;;17.99;100.00;101755.69;5035885;28;20593;-78
2023/06/28 10:05:34;;;;;;;13.40;4.57;;;;;;;18.05;98.41;101749.41;5035509;28;20080;-80
2023/06/28 10:08:00;;;;;;;12.50;4.90;;;;;;;18.32;99.24;101749.94;5037229;28;20029;-75
2023/06/28 10:10:26;;;;;;;14.02;5.72;;;;;;;18.48;99.09;101757.41;5035612;28;20048;-73
2023/06/28 10:12:55;;;;;;;12.30;4.45;;;;;;;18.71;99.27;101754.00;5035179;28;20461;-75
2023/06/28 10:15:23;;;;;;;12.38;5.13;;;;;;;18.85;94.99;101759.25;5036338;28;20048;-73
2023/06/28 10:17:50;;;;;;;16.95;5.70;;;;;;;19.08;96.50;101742.28;5009438;28;20036;-75
2023/06/28 10:20:17;;;;;;;11.32;5.68;;;;;;;19.43;96.09;101745.03;5033682;28;20099;-75
2023/06/28 10:22:43;;;;;;;10.57;4.28;;;;;;;19.73;95.50;101744.13;5035913;28;20425;-75
2023/06/28 10:25:11;;;;;;;11.68;5.18;;;;;;;19.88;90.82;101749.91;5035394;28;20017;-75
2023/06/28 10:27:37;;;;;;;11.18;5.43;;;;;;;20.09;91.02;101754.69;5036337;28;20051;-74
2023/06/28 10:30:03;;;;;;;14.45;5.75;;;;;;;20.41;89.00;101751.59;5035790;28;20029;-75
2023/06/28 10:32:28;;;;;;;9.15;5.00;;;;;;;20.69;87.42;101748.06;5036159;28;20048;-76
2023/06/28 10:34:56;;;;;;;14.50;4.68;;;;;;;20.67;87.31;101744.81;5035377;28;20029;-75
2023/06/28 10:37:22;;;;;;;10.52;4.78;;;;;;;20.72;85.66;101744.06;5035398;28;20033;-75
2023/06/28 10:39:52;;;;;;;10.88;4.50;;;;;;;20.86;85.90;101744.59;5036227;28;20047;-74
2023/06/28 10:42:19;;;;;;;16.02;4.93;;;;;;;21.01;85.70;101742.13;5034935;28;20030;-75
2023/06/28 10:44:55;;;;;;;9.35;4.68;;;;;;;21.13;84.83;101742.91;5032229;28;20063;-75
2023/06/28 10:47:21;;;;;;;10.48;4.78;;;;;;;21.16;83.92;101739.69;5034563;28;20066;-75
2023/06/28 10:50:04;;;;;;;6.88;3.60;;;;;;;21.19;83.72;101746.50;5018236;28;20392;-74
2023/06/28 10:52:30;;;;;;;9.25;4.13;;;;;;;21.24;84.14;101743.88;5035301;28;20036;-74
2023/06/28 10:54:56;;;;;;;10.35;4.32;;;;;;;21.34;82.50;101735.09;5018419;28;20025;-74
2023/06/28 10:57:37;;;;;;;12.50;3.85;;;;;;;21.51;84.03;101735.09;5035012;28;20423;-75
2023/06/28 11:00:05;;;;;;;11.23;4.45;;;;;;;21.63;80.82;101735.84;5035188;28;20021;-74
2023/06/28 11:02:54;;;;;;;9.68;4.45;;;;;;;21.84;81.14;101735.06;5035731;28;20029;-74
2023/06/28 11:05:38;;;;;;;12.95;4.38;;;;;;;21.93;80.24;101737.34;5035187;28;20108;-74
2023/06/28 11:08:09;;;;;;;7.90;4.10;;;;;;;22.12;77.43;101738.69;5036647;28;20021;-74
2023/06/28 11:10:42;;;;;;;10.65;4.75;;;;;;;22.39;78.54;101730.63;5035498;28;20024;-74